Terminal Aerodrome Forecast
Issued by NWS Charleston, WV

Home | Current Version | Previous Version | Text Only | Print | Product List | Glossary On
Versions: 1 2 3 4 5 6 7 8 9 10 11 12 13 14 15 16 17 18 19 20 21
000
FTUS41 KRLX 281400 AAA
TAFBKW
TAF AMD
KBKW 281427Z 2814/2912 33004KT P6SM SCT008 BKN013
      TEMPO 2814/2817 BKN025
     FM281700 33005KT P6SM SCT035=

USA.gov is the U.S. government's official web portal to all federal, state and local government web resources and services.